createdAt,value
2022-09-02T00:01:37.999Z,14.30
2022-09-02T00:04:27.023Z,14.30
2022-09-02T00:07:14.230Z,14.30
2022-09-02T00:10:01.582Z,14.20
2022-09-02T00:12:48.917Z,14.30
2022-09-02T00:15:36.550Z,14.30
2022-09-02T00:18:26.330Z,14.30
2022-09-02T00:21:14.267Z,14.30
2022-09-02T00:24:02.052Z,14.40
2022-09-02T00:26:49.627Z,14.40
2022-09-02T00:29:37.281Z,14.40
2022-09-02T00:32:24.474Z,14.40
2022-09-02T00:35:13.195Z,14.40
2022-09-02T00:38:00.802Z,14.40
2022-09-02T00:40:50.743Z,14.40
2022-09-02T00:43:46.625Z,14.40
2022-09-02T00:46:34.720Z,14.40
2022-09-02T00:49:26.623Z,14.40
2022-09-02T00:52:19.616Z,14.40
2022-09-02T00:55:12.266Z,14.40
2022-09-02T00:58:04.036Z,14.40
2022-09-02T01:01:01.042Z,14.40
2022-09-02T01:03:49.035Z,14.40
2022-09-02T01:06:36.691Z,14.40
2022-09-02T01:09:25.626Z,14.50
2022-09-02T01:12:14.273Z,14.40
2022-09-02T01:15:02.060Z,14.40
2022-09-02T01:17:52.139Z,14.40
2022-09-02T01:20:39.616Z,14.40
2022-09-02T01:23:29.161Z,14.40
2022-09-02T01:26:20.458Z,14.40
2022-09-02T01:29:07.612Z,14.40
2022-09-02T01:31:55.265Z,14.40
2022-09-02T01:34:42.457Z,14.30
2022-09-02T01:37:29.995Z,14.30
2022-09-02T01:40:19.653Z,14.40
2022-09-02T01:43:09.821Z,14.30
2022-09-02T01:45:58.982Z,14.30
2022-09-02T01:48:48.737Z,14.30
2022-09-02T01:51:36.193Z,14.30
2022-09-02T01:54:23.382Z,14.20
2022-09-02T01:57:12.243Z,14.10
2022-09-02T02:00:01.359Z,14.20
2022-09-02T02:02:59.772Z,14.10
2022-09-02T02:05:47.226Z,14.10
2022-09-02T02:08:36.769Z,14.00
2022-09-02T02:11:26.076Z,14.10
2022-09-02T02:14:19.241Z,14.00
2022-09-02T02:17:09.217Z,14.00
2022-09-02T02:19:56.321Z,14.00
2022-09-02T02:22:44.662Z,13.90
2022-09-02T02:25:31.664Z,13.80
2022-09-02T02:28:19.235Z,13.60
2022-09-02T02:31:09.852Z,13.60
2022-09-02T02:33:57.887Z,13.60
2022-09-02T02:36:45.152Z,13.50
2022-09-02T02:39:32.347Z,13.50
2022-09-02T02:42:20.301Z,13.50
2022-09-02T02:45:10.100Z,13.40
2022-09-02T02:48:04.886Z,13.50
2022-09-02T02:50:53.365Z,13.60
2022-09-02T02:53:40.766Z,13.60
2022-09-02T02:56:28.417Z,13.50
2022-09-02T02:59:15.489Z,13.40
2022-09-02T03:02:02.907Z,13.40
2022-09-02T03:04:54.202Z,13.30
2022-09-02T03:07:42.377Z,13.30
2022-09-02T03:10:32.786Z,13.30
2022-09-02T03:13:21.559Z,13.20
2022-09-02T03:16:09.310Z,13.10
2022-09-02T03:18:56.720Z,12.90
2022-09-02T03:21:45.323Z,12.80
2022-09-02T03:24:32.628Z,12.80
2022-09-02T03:27:19.964Z,12.70
2022-09-02T03:30:09.248Z,12.80
2022-09-02T03:33:03.773Z,12.70
2022-09-02T03:35:52.307Z,12.80
2022-09-02T03:38:41.115Z,12.80
2022-09-02T03:41:28.381Z,12.90
2022-09-02T03:44:17.909Z,12.90
2022-09-02T03:47:05.598Z,13.00
2022-09-02T03:49:52.806Z,13.00
2022-09-02T03:52:39.923Z,13.10
2022-09-02T03:55:29.651Z,13.00
2022-09-02T03:58:17.410Z,12.90
2022-09-02T04:01:05.963Z,12.90
2022-09-02T04:03:54.539Z,12.90
2022-09-02T04:06:42.028Z,12.90
2022-09-02T04:09:29.571Z,12.90
2022-09-02T04:12:18.106Z,12.90
2022-09-02T04:15:06.287Z,12.90
2022-09-02T04:17:53.806Z,12.90
2022-09-02T04:20:42.276Z,12.90
2022-09-02T04:23:29.541Z,12.90
2022-09-02T04:26:18.595Z,12.90
2022-09-02T04:29:07.914Z,12.70
2022-09-02T04:31:55.427Z,12.80
2022-09-02T04:34:43.172Z,12.60
2022-09-02T04:37:30.461Z,12.70
2022-09-02T04:40:18.711Z,12.80
2022-09-02T04:43:06.759Z,12.80
2022-09-02T04:45:57.668Z,12.80
2022-09-02T04:48:47.271Z,12.90
2022-09-02T04:51:35.737Z,12.90
2022-09-02T04:54:25.615Z,12.90
2022-09-02T04:57:14.630Z,12.90
2022-09-02T05:00:04.086Z,12.90
2022-09-02T05:02:54.256Z,12.80
2022-09-02T05:05:42.609Z,13.00
2022-09-02T05:08:32.209Z,12.90
2022-09-02T05:11:28.548Z,13.00
2022-09-02T05:14:16.945Z,13.10
2022-09-02T05:17:07.662Z,13.10
2022-09-02T05:20:00.178Z,13.20
2022-09-02T05:22:47.709Z,13.20
2022-09-02T05:25:38.055Z,13.30
2022-09-02T05:28:25.790Z,13.30
2022-09-02T05:31:16.046Z,13.40
2022-09-02T05:34:03.495Z,13.40
2022-09-02T05:36:52.248Z,13.50
2022-09-02T05:39:40.177Z,13.60
2022-09-02T05:42:29.817Z,13.60
2022-09-02T05:45:17.744Z,13.60
2022-09-02T05:48:25.350Z,13.60
2022-09-02T05:51:12.512Z,13.70
2022-09-02T05:54:02.579Z,13.70
2022-09-02T05:56:52.117Z,13.80
2022-09-02T05:59:42.312Z,13.70
2022-09-02T06:02:32.714Z,13.80
2022-09-02T06:05:20.405Z,13.70
2022-09-02T06:08:15.660Z,13.90
2022-09-02T06:11:04.450Z,13.80
2022-09-02T06:13:52.974Z,13.90
2022-09-02T06:16:41.956Z,13.90
2022-09-02T06:19:37.415Z,13.90
2022-09-02T06:22:25.486Z,14.00
2022-09-02T06:25:14.958Z,14.10
2022-09-02T06:28:07.210Z,14.20
2022-09-02T06:30:58.868Z,14.30
2022-09-02T06:33:48.581Z,14.20
2022-09-02T06:36:38.081Z,14.30
2022-09-02T06:39:26.155Z,14.40
2022-09-02T06:42:16.199Z,14.40
2022-09-02T06:45:21.279Z,14.60
2022-09-02T06:48:09.205Z,14.70
2022-09-02T06:50:59.064Z,14.80
2022-09-02T06:53:47.516Z,14.90
2022-09-02T06:56:36.271Z,15.20
2022-09-02T06:59:23.900Z,15.30
2022-09-02T07:05:14.980Z,15.50
2022-09-02T07:08:04.081Z,15.90
2022-09-02T07:10:51.345Z,16.30
2022-09-02T07:13:38.688Z,16.90
2022-09-02T07:16:27.242Z,16.90
2022-09-02T07:19:20.668Z,16.70
2022-09-02T07:22:08.956Z,16.60
2022-09-02T07:25:00.819Z,16.70
2022-09-02T07:27:48.381Z,17.00
2022-09-02T07:30:36.012Z,17.60
2022-09-02T07:33:30.132Z,18.20
2022-09-02T07:36:21.618Z,18.50
2022-09-02T07:39:11.862Z,18.40
2022-09-02T07:42:00.431Z,18.60
2022-09-02T07:44:48.229Z,19.20
2022-09-02T07:47:35.566Z,19.50
2022-09-02T07:50:27.029Z,19.50
2022-09-02T07:53:16.657Z,19.40
2022-09-02T07:56:06.067Z,19.50
2022-09-02T07:58:53.112Z,19.50
2022-09-02T08:04:36.926Z,20.20
2022-09-02T08:07:27.463Z,20.70
2022-09-02T08:10:17.146Z,20.70
2022-09-02T08:13:05.573Z,20.70
2022-09-02T08:15:53.126Z,20.90
2022-09-02T08:18:40.331Z,20.70
2022-09-02T08:21:27.461Z,20.80
2022-09-02T08:24:14.785Z,20.90
2022-09-02T08:27:03.604Z,21.20
2022-09-02T08:29:50.682Z,21.30
2022-09-02T08:32:38.181Z,21.30
2022-09-02T08:35:25.753Z,21.40
2022-09-02T08:38:12.677Z,21.80
2022-09-02T08:41:01.533Z,21.30
2022-09-02T08:43:52.730Z,21.20
2022-09-02T08:46:40.218Z,21.60
2022-09-02T08:49:34.711Z,21.50
2022-09-02T08:52:31.763Z,21.40
2022-09-02T08:55:22.536Z,21.80
2022-09-02T08:58:10.537Z,21.60
2022-09-02T09:01:08.538Z,21.60
2022-09-02T09:04:20.083Z,21.80
2022-09-02T09:07:19.564Z,22.00
2022-09-02T09:10:15.086Z,22.00
2022-09-02T09:13:16.266Z,21.80
2022-09-02T09:16:14.579Z,21.90
2022-09-02T09:19:09.053Z,22.00
2022-09-02T09:22:00.909Z,22.40
2022-09-02T09:24:49.982Z,22.10
2022-09-02T09:27:37.241Z,22.40
2022-09-02T09:30:24.614Z,22.60
2022-09-02T09:33:17.842Z,22.90
2022-09-02T09:36:05.734Z,23.30
2022-09-02T09:38:53.054Z,23.30
2022-09-02T09:41:40.936Z,22.70
2022-09-02T09:44:44.831Z,22.60
2022-09-02T09:47:32.210Z,22.90
2022-09-02T09:50:20.762Z,22.20
2022-09-02T09:53:18.999Z,22.00
2022-09-02T09:56:08.609Z,22.20
2022-09-02T09:58:55.653Z,21.70
2022-09-02T10:01:52.260Z,21.60
2022-09-02T10:04:43.260Z,21.50
2022-09-02T10:07:41.129Z,21.40
2022-09-02T10:10:35.644Z,21.40
2022-09-02T10:13:27.017Z,21.80
2022-09-02T10:16:29.500Z,21.90
2022-09-02T10:19:27.958Z,22.30
2022-09-02T10:22:58.593Z,22.90
2022-09-02T10:26:00.329Z,23.00
2022-09-02T10:29:30.422Z,23.10
2022-09-02T10:32:25.834Z,22.30
2022-09-02T10:35:19.083Z,22.00
2022-09-02T10:38:22.888Z,21.80
2022-09-02T10:44:42.662Z,21.50
2022-09-02T10:47:37.453Z,21.50
2022-09-02T10:50:35.921Z,21.60
2022-09-02T10:53:50.037Z,21.60
2022-09-02T10:56:45.749Z,21.70
2022-09-02T10:59:41.309Z,21.80
2022-09-02T11:02:32.953Z,21.80
2022-09-02T11:05:24.183Z,21.60
2022-09-02T11:08:15.634Z,21.30
2022-09-02T11:11:09.210Z,21.10
2022-09-02T11:14:03.746Z,21.10
2022-09-02T11:16:56.240Z,21.10
2022-09-02T11:19:51.056Z,21.00
2022-09-02T11:22:43.186Z,21.10
2022-09-02T11:25:35.109Z,21.20
2022-09-02T11:28:31.475Z,21.50
2022-09-02T11:31:25.853Z,21.70
2022-09-02T11:34:27.008Z,21.90
2022-09-02T11:37:25.463Z,21.80
2022-09-02T11:40:33.889Z,21.70
2022-09-02T11:43:34.797Z,21.80
2022-09-02T11:47:08.096Z,21.80
2022-09-02T11:50:23.256Z,21.90
2022-09-02T11:53:21.481Z,22.00
2022-09-02T11:56:16.101Z,21.90
2022-09-02T11:59:03.720Z,22.10
2022-09-02T12:01:54.725Z,21.60
2022-09-02T12:04:59.880Z,21.60
2022-09-02T12:07:50.858Z,21.40
2022-09-02T12:11:02.038Z,21.50
2022-09-02T12:17:02.610Z,21.50
2022-09-02T12:19:50.662Z,21.80
2022-09-02T12:22:39.724Z,21.80
2022-09-02T12:25:43.079Z,21.70
2022-09-02T12:28:31.666Z,22.00
2022-09-02T12:31:42.473Z,22.10
2022-09-02T12:34:56.481Z,22.00
2022-09-02T12:37:58.277Z,22.00
2022-09-02T12:40:59.641Z,21.70
2022-09-02T12:44:19.261Z,21.60
2022-09-02T12:47:09.862Z,21.70
2022-09-02T12:50:05.087Z,21.80
2022-09-02T12:52:54.553Z,21.60
2022-09-02T12:55:50.981Z,21.50
2022-09-02T12:58:42.877Z,21.40
2022-09-02T13:01:40.472Z,21.30
2022-09-02T13:04:39.292Z,21.40
2022-09-02T13:08:14.635Z,21.40
2022-09-02T13:11:35.651Z,21.30
2022-09-02T13:14:59.255Z,21.20
2022-09-02T13:18:02.144Z,21.20
2022-09-02T13:21:09.351Z,21.20
2022-09-02T13:24:17.963Z,21.20
2022-09-02T13:27:23.714Z,21.10
2022-09-02T13:30:22.032Z,21.10
2022-09-02T13:33:11.533Z,21.10
2022-09-02T13:36:00.115Z,21.30
2022-09-02T13:38:47.649Z,21.40
2022-09-02T13:41:34.946Z,21.60
2022-09-02T13:44:23.801Z,21.70
2022-09-02T13:47:17.355Z,21.80
2022-09-02T13:50:06.357Z,21.80
2022-09-02T13:56:06.617Z,21.70
2022-09-02T13:58:56.649Z,21.80
2022-09-02T14:01:43.874Z,21.80
2022-09-02T14:04:35.257Z,21.80
2022-09-02T14:07:29.390Z,21.60
2022-09-02T14:10:19.668Z,21.70
2022-09-02T14:13:08.969Z,21.60
2022-09-02T14:16:26.197Z,21.80
2022-09-02T14:19:25.499Z,21.90
2022-09-02T14:22:24.462Z,21.80
2022-09-02T14:25:14.784Z,21.80
2022-09-02T14:28:02.771Z,21.90
2022-09-02T14:30:59.092Z,21.90
2022-09-02T14:33:47.091Z,21.80
2022-09-02T14:36:36.959Z,21.80
2022-09-02T14:39:25.383Z,21.50
2022-09-02T14:42:12.725Z,21.50
2022-09-02T14:45:00.360Z,21.50
2022-09-02T14:47:47.609Z,21.60
2022-09-02T14:50:38.230Z,21.70
2022-09-02T14:53:26.064Z,21.80
2022-09-02T14:56:14.694Z,21.90
2022-09-02T14:59:01.924Z,21.90
2022-09-02T15:01:51.540Z,22.10
2022-09-02T15:04:39.055Z,22.00
2022-09-02T15:07:27.082Z,22.10
2022-09-02T15:10:14.349Z,21.90
2022-09-02T15:13:03.095Z,21.80
2022-09-02T15:15:52.131Z,21.80
2022-09-02T15:18:39.262Z,21.80
2022-09-02T15:21:26.279Z,21.90
2022-09-02T15:24:13.376Z,21.90
2022-09-02T15:27:00.716Z,21.90
2022-09-02T15:29:49.739Z,21.60
2022-09-02T15:32:37.182Z,21.50
2022-09-02T15:35:24.450Z,21.20
2022-09-02T15:38:11.855Z,21.20
2022-09-02T15:41:10.157Z,21.20
2022-09-02T15:43:57.544Z,21.30
2022-09-02T15:46:46.644Z,21.30
2022-09-02T15:49:34.037Z,21.40
2022-09-02T15:52:21.385Z,21.40
2022-09-02T15:55:08.900Z,21.40
2022-09-02T15:57:56.254Z,21.40
2022-09-02T16:00:43.871Z,21.30
2022-09-02T16:03:32.438Z,21.20
2022-09-02T16:06:19.470Z,21.00
2022-09-02T16:09:07.649Z,21.00
2022-09-02T16:11:56.746Z,20.90
2022-09-02T16:14:43.871Z,20.80
2022-09-02T16:17:31.288Z,20.70
2022-09-02T16:20:21.349Z,20.70
2022-09-02T16:23:08.875Z,20.60
2022-09-02T16:26:16.663Z,20.50
2022-09-02T16:29:05.861Z,20.50
2022-09-02T16:32:07.836Z,20.50
2022-09-02T16:35:01.069Z,20.60
2022-09-02T16:37:50.316Z,20.70
2022-09-02T16:40:37.644Z,20.70
2022-09-02T16:43:25.956Z,20.70
2022-09-02T16:46:12.990Z,20.70
2022-09-02T16:49:00.343Z,20.70
2022-09-02T16:51:48.322Z,20.80
2022-09-02T16:54:40.839Z,20.80
2022-09-02T16:57:28.563Z,20.80
2022-09-02T17:00:17.492Z,20.60
2022-09-02T17:03:04.593Z,20.50
2022-09-02T17:05:51.909Z,20.50
2022-09-02T17:08:39.287Z,20.40
2022-09-02T17:11:29.294Z,20.40
2022-09-02T17:14:18.391Z,20.30
2022-09-02T17:17:05.696Z,20.20
2022-09-02T17:19:53.158Z,20.20
2022-09-02T17:22:40.586Z,20.20
2022-09-02T17:25:27.937Z,20.10
2022-09-02T17:28:16.521Z,20.00
2022-09-02T17:31:05.574Z,20.00
2022-09-02T17:33:54.619Z,20.00
2022-09-02T17:36:43.432Z,19.90
2022-09-02T17:39:30.914Z,19.90
2022-09-02T17:42:17.060Z,19.90
2022-09-02T17:45:06.321Z,19.80
2022-09-02T17:47:53.477Z,19.70
2022-09-02T17:50:40.746Z,19.70
2022-09-02T17:53:28.440Z,19.60
2022-09-02T17:56:36.178Z,19.60
2022-09-02T17:59:31.195Z,19.50
2022-09-02T18:02:46.044Z,19.40
2022-09-02T18:05:45.215Z,19.30
2022-09-02T18:08:38.824Z,19.20
2022-09-02T18:11:26.487Z,19.10
2022-09-02T18:14:18.183Z,19.00
2022-09-02T18:17:16.859Z,19.00
2022-09-02T18:20:14.683Z,18.90
2022-09-02T18:23:34.571Z,18.90
2022-09-02T18:26:31.362Z,18.80
2022-09-02T18:29:34.179Z,18.70
2022-09-02T18:32:34.551Z,18.70
2022-09-02T18:35:34.055Z,18.60
2022-09-02T18:38:29.198Z,18.50
2022-09-02T18:41:38.270Z,18.50
2022-09-02T18:44:36.487Z,18.50
2022-09-02T18:47:28.483Z,18.40
2022-09-02T18:50:49.078Z,18.30
2022-09-02T18:53:35.427Z,18.30
2022-09-02T18:56:26.888Z,18.20
2022-09-02T18:59:16.327Z,18.20
2022-09-02T19:02:15.183Z,18.20
2022-09-02T19:05:04.051Z,18.10
2022-09-02T19:08:19.046Z,18.10
2022-09-02T19:11:08.933Z,18.10
2022-09-02T19:14:00.775Z,18.00
2022-09-02T19:16:48.303Z,18.00
2022-09-02T19:19:35.568Z,18.00
2022-09-02T19:22:27.029Z,17.90
2022-09-02T19:25:20.277Z,17.90
2022-09-02T19:28:07.230Z,17.80
2022-09-02T19:30:59.595Z,17.80
2022-09-02T19:33:53.143Z,17.80
2022-09-02T19:36:44.821Z,17.70
2022-09-02T19:39:32.926Z,17.70
2022-09-02T19:42:24.218Z,17.70
2022-09-02T19:45:16.002Z,17.70
2022-09-02T19:48:07.524Z,17.60
2022-09-02T19:50:56.513Z,17.50
2022-09-02T19:53:44.707Z,17.50
2022-09-02T19:56:33.595Z,17.50
2022-09-02T19:59:22.764Z,17.40
2022-09-02T20:02:10.258Z,17.40
2022-09-02T20:04:57.922Z,17.40
2022-09-02T20:07:45.008Z,17.40
2022-09-02T20:10:32.761Z,17.30
2022-09-02T20:13:20.250Z,17.30
2022-09-02T20:16:18.251Z,17.20
2022-09-02T20:19:05.330Z,17.20
2022-09-02T20:21:52.994Z,17.20
2022-09-02T20:24:41.518Z,17.00
2022-09-02T20:27:40.239Z,17.00
2022-09-02T20:30:33.634Z,16.90
2022-09-02T20:33:24.117Z,16.80
2022-09-02T20:36:18.450Z,16.80
2022-09-02T20:39:18.411Z,16.80
2022-09-02T20:42:22.983Z,16.70
2022-09-02T20:45:15.721Z,16.70
2022-09-02T20:48:12.822Z,16.70
2022-09-02T20:51:09.887Z,16.60
2022-09-02T20:54:19.372Z,16.50
2022-09-02T20:57:24.143Z,16.50
2022-09-02T21:00:14.104Z,16.50
2022-09-02T21:03:06.362Z,16.40
2022-09-02T21:05:58.200Z,16.40
2022-09-02T21:08:57.746Z,16.50
2022-09-02T21:11:54.837Z,16.40
2022-09-02T21:14:47.299Z,16.40
2022-09-02T21:17:48.422Z,16.40
2022-09-02T21:20:47.437Z,16.30
2022-09-02T21:23:39.666Z,16.20
2022-09-02T21:26:39.814Z,16.30
2022-09-02T21:29:32.690Z,16.30
2022-09-02T21:32:28.009Z,16.30
2022-09-02T21:35:20.102Z,16.30
2022-09-02T21:38:12.216Z,16.20
2022-09-02T21:41:12.807Z,16.20
2022-09-02T21:44:09.233Z,16.10
2022-09-02T21:47:04.101Z,16.00
2022-09-02T21:50:09.003Z,16.00
2022-09-02T21:53:13.968Z,15.90
2022-09-02T21:56:17.690Z,15.90
2022-09-02T21:59:23.555Z,15.90
2022-09-02T22:02:15.165Z,15.80
2022-09-02T22:05:07.806Z,15.80
2022-09-02T22:08:04.749Z,15.80
2022-09-02T22:11:01.859Z,15.80
2022-09-02T22:13:49.051Z,15.70
2022-09-02T22:16:46.540Z,15.50
2022-09-02T22:19:39.128Z,15.40
2022-09-02T22:22:30.112Z,15.30
2022-09-02T22:25:17.448Z,15.30
2022-09-02T22:28:10.169Z,15.20
2022-09-02T22:30:59.775Z,15.20
2022-09-02T22:33:55.789Z,15.10
2022-09-02T22:36:59.520Z,15.20
2022-09-02T22:39:51.487Z,15.10
2022-09-02T22:42:41.021Z,15.10
2022-09-02T22:45:50.392Z,15.10
2022-09-02T22:48:59.098Z,15.00
2022-09-02T22:52:08.698Z,15.00
2022-09-02T22:54:57.738Z,14.80
2022-09-02T22:57:54.195Z,14.80
2022-09-02T23:00:47.882Z,14.80
2022-09-02T23:03:43.664Z,14.60
2022-09-02T23:06:32.356Z,14.60
2022-09-02T23:09:20.873Z,14.50
2022-09-02T23:12:27.658Z,14.50
2022-09-02T23:15:24.721Z,14.50
2022-09-02T23:18:19.059Z,14.50
2022-09-02T23:21:16.912Z,14.50
2022-09-02T23:24:13.938Z,14.40
2022-09-02T23:27:10.519Z,14.40
2022-09-02T23:29:58.049Z,14.40
2022-09-02T23:33:00.531Z,14.30
2022-09-02T23:35:54.843Z,14.30
2022-09-02T23:38:59.659Z,14.20
2022-09-02T23:41:47.994Z,14.40
2022-09-02T23:44:36.463Z,14.30
2022-09-02T23:47:37.603Z,14.20
2022-09-02T23:50:34.498Z,14.20
2022-09-02T23:53:25.803Z,14.30
2022-09-02T23:56:23.621Z,14.20
2022-09-02T23:59:29.882Z,14.20
